Estación Meteorológica Peña el Pijo (Robertgarden) [ 07/19/24 12:51:44 CEST ]

Fecha Hora Presion(HPa) Temp (°C) Humedad % Rocio (°C) Viento ( m/s) Direccion Lluvia 1Hora(mm) Lluvia 24H(mm) LLuvia Total(mm)
2009-Sep-03 01:01:14 1014.400 18.6 44 6.0         355.86
2009-Sep-03 02:01:10 1014.300 18.1 46 6.2         355.86
2009-Sep-03 03:05:17 1013.600 17.3 49 6.5         355.86
2009-Sep-03 04:01:16 1013.400 16.4 54 7.0         355.86
2009-Sep-03 05:01:11 1013.300 14.8 60 7.1         355.86
2009-Sep-03 06:01:11 1013.300 13.2 66 7.0         355.86
2009-Sep-03 07:01:14 1013.400 13.1 69 7.6         355.86
2009-Sep-03 08:01:13 1013.200 14.8 67 8.7         355.86
2009-Sep-03 09:01:18 1013.400 19.1 56 10.1         355.86
2009-Sep-03 10:01:16 1013.700 23.4 48 11.7         355.86
2009-Sep-03 11:01:21 1013.800 28.3 34 10.8         355.86
2009-Sep-03 12:01:14 1013.900 31.1 27 9.7         355.86
2009-Sep-03 13:01:11 1013.400 30.9 25 8.4         355.86
2009-Sep-03 14:01:13 1013.200 34.6 21 9.0         355.86
2009-Sep-03 15:01:16 1012.600 35.4 20 9.1         355.86
2009-Sep-03 16:01:16 1012.000 36.9 17 7.3         355.86
2009-Sep-03 17:01:16 1011.600 36.9 15 5.3         355.86
2009-Sep-03 18:01:17 1011.400 35.9 15 4.5         355.86
2009-Sep-03 19:01:13 1011.600 32.9 16 3.1         355.86
2009-Sep-03 20:01:13 1011.800 28.1 20 3.1         355.86
2009-Sep-03 21:01:16 1012.600 23.3 29 4.2         355.86
2009-Sep-03 22:01:14 1013.400 19.3 35 3.4         355.86
2009-Sep-03 23:01:17 1013.800 17.6 37 2.6         355.86

Temperatura Máxima:36°    Temperatura Mínima:13°
Presión Máxima:1014.400 Hpa    Presión Mínima:1011.400 Hpa


Volver